This is the latest recevied weather packets stored in our database for station/object N0SWP-3. If no packets are shown the sender has not sent any weather packets the latest 10 day(s).
| Time | Temp. | Humidity | Pressure | Rain* | Wind** | Luminosity | Snow |
|---|---|---|---|---|---|---|---|
| 1777611783 | 8.89° C | 81% | 1019.7 hPa | 0 mm | - | - | - |
| 1777610703 | 9.44° C | 79% | 1019.5 hPa | 0 mm | - | - | - |
| 1777610343 | 9.44° C | 79% | 1019.4 hPa | 0 mm | - | - | - |
| 1777610298 | 9.44° C | 79% | 1019.4 hPa | 0 mm | - | - | - |
| 1777608544 | 10.56° C | 77% | 1019.3 hPa | 0 mm | - | - | - |
| 1777608183 | 10.56° C | 77% | 1019.2 hPa | 0 mm | - | - | - |
| 1777604357 | 12.78° C | 69% | 1018.8 hPa | 0 mm | - | - | - |
| 1777600803 | 13.33° C | 67% | 1017.7 hPa | 0 mm | - | - | - |
| 1777599543 | 14.44° C | 66% | 1017.3 hPa | 0 mm | - | - | - |
| 1777599363 | 14.44° C | 66% | 1017.3 hPa | 0 mm | - | - | - |
| 1777598957 | 14.44° C | 66% | 1017.2 hPa | 0 mm | - | - | - |
| 1777598598 | 14.44° C | 68% | 1017.2 hPa | 0 mm | - | - | - |
| 1777596843 | 15° C | 77% | 1016.9 hPa | 0 mm | - | - | - |
| 1777596483 | 15° C | 77% | 1016.8 hPa | 0 mm | - | - | - |
| 1777593963 | 15.56° C | 73% | 1016.3 hPa | 0 mm | - | - | - |
| 1777593243 | 15.56° C | 71% | 1016.3 hPa | 0 mm | - | - | - |
| 1777588923 | 20° C | 51% | 1015.8 hPa | 0 mm | - | - | - |
| 1777587797 | 19.44° C | 50% | 1016 hPa | 0 mm | - | - | - |
| 1777587483 | 20° C | 49% | 1015.9 hPa | 0 mm | - | - | - |
| 1777586583 | 20° C | 48% | 1016 hPa | 0 mm | - | - | - |
| 1777583883 | 20° C | 49% | 1016.4 hPa | 0 mm | - | - | - |
| 1777583478 | 20° C | 47% | 1016.5 hPa | 0 mm | - | - | - |
| 1777582623 | 20° C | 47% | 1016.8 hPa | 0 mm | - | - | - |
| 1777582577 | 20° C | 48% | 1016.8 hPa | 0 mm | - | - | - |
| 1777580957 | 20° C | 48% | 1017.2 hPa | 0 mm | - | - | - |
* Rain latest hour (hover to see other rain measurements)
** Current wind speed in m/s (hover to see current wind gust speed)